Deunquat, Ohio
Current Conditions -  °F | °C
As of 12:53 PM on Thursday 23 Oct 2014 (Local Time) from KMNN Reporting Station
Few Clouds Few Clouds  
Wind Chill: 45°   Ceiling: Unl
Heat Index: 49°   Visibility: 7mi
Dew Point: 42°   Wind: 8mph
Humidity: 77%   Direction: 300°WNW
Pressure: 30.23"   Gusts: NA
Location:  40.948°N, 83.1346°W
Report Text: KMNN 231653Z AUTO 30007KT 7SM FEW009 09/06 A3023 RMK AO2 SLP243 T00940056 TSNO
Loading
Personal Weather Stations






























Interactive Weather Map
Tropical Storm Tracking
New forecast layout! Learn more

10-Day Weather Forecast

Advertisements
Track Severe Weather on mobile